createdAt,value
2022-11-17T00:03:09.272Z,5.33
2022-11-17T00:08:11.792Z,4.60
2022-11-17T00:13:32.250Z,5.20
2022-11-17T00:18:53.700Z,4.63
2022-11-17T00:23:56.341Z,4.65
2022-11-17T00:28:59.333Z,5.17
2022-11-17T00:34:05.821Z,5.05
2022-11-17T00:39:09.051Z,4.80
2022-11-17T00:44:11.751Z,4.63
2022-11-17T00:49:15.716Z,5.10
2022-11-17T00:54:18.314Z,5.07
2022-11-17T00:59:20.819Z,5.53
2022-11-17T01:04:24.583Z,5.18
2022-11-17T01:09:26.987Z,5.53
2022-11-17T01:14:30.262Z,5.90
2022-11-17T01:19:34.025Z,6.07
2022-11-17T01:24:36.409Z,6.22
2022-11-17T01:29:38.781Z,6.47
2022-11-17T01:34:42.581Z,6.32
2022-11-17T01:39:44.997Z,6.05
2022-11-17T01:44:55.677Z,7.22
2022-11-17T01:50:00.779Z,7.35
2022-11-17T01:55:03.765Z,8.00
2022-11-17T02:00:07.194Z,8.23
2022-11-17T02:05:14.545Z,8.23
2022-11-17T02:10:17.074Z,7.45
2022-11-17T02:15:19.575Z,7.97
2022-11-17T02:20:25.661Z,7.90
2022-11-17T02:25:36.240Z,8.68
2022-11-17T02:30:46.368Z,8.82
2022-11-17T02:35:52.029Z,8.77
2022-11-17T02:40:58.795Z,8.40
2022-11-17T02:46:04.057Z,7.70
2022-11-17T02:51:07.619Z,7.65
2022-11-17T02:56:09.999Z,7.93
2022-11-17T03:01:24.589Z,8.45
2022-11-17T03:06:30.739Z,8.13
2022-11-17T03:11:37.194Z,7.03
2022-11-17T03:16:46.409Z,7.10
2022-11-17T03:21:50.838Z,6.50
2022-11-17T03:26:55.406Z,6.20
2022-11-17T03:32:01.241Z,6.22
2022-11-17T03:37:05.869Z,6.90
2022-11-17T03:42:10.997Z,6.60
2022-11-17T03:47:16.652Z,7.68
2022-11-17T03:52:19.688Z,7.50
2022-11-17T03:57:27.025Z,7.50
2022-11-17T04:02:30.862Z,7.22
2022-11-17T04:07:33.470Z,7.53
2022-11-17T04:12:53.273Z,7.57
2022-11-17T04:17:57.065Z,6.57
2022-11-17T04:23:07.901Z,8.25
2022-11-17T04:28:27.867Z,8.73
2022-11-17T04:33:31.733Z,9.82
2022-11-17T04:38:34.321Z,10.50
2022-11-17T04:43:38.192Z,10.98
2022-11-17T04:48:42.017Z,12.15
2022-11-17T04:53:44.528Z,13.15
2022-11-17T04:58:47.161Z,11.40
2022-11-17T05:03:51.982Z,11.07
2022-11-17T05:08:55.701Z,11.20
2022-11-17T05:13:58.520Z,12.15
2022-11-17T05:19:02.747Z,12.37
2022-11-17T05:24:05.789Z,12.52
2022-11-17T05:29:08.825Z,12.00
2022-11-17T05:34:13.390Z,12.40
2022-11-17T05:39:16.311Z,10.23
2022-11-17T05:44:18.748Z,10.10
2022-11-17T05:49:22.585Z,10.73
2022-11-17T05:54:26.822Z,9.55
2022-11-17T05:59:31.710Z,8.85
2022-11-17T06:04:35.596Z,9.13
2022-11-17T06:09:40.199Z,8.68
2022-11-17T06:14:42.614Z,8.60
2022-11-17T06:19:49.095Z,8.70
2022-11-17T06:24:51.635Z,8.05
2022-11-17T06:29:54.607Z,8.50
2022-11-17T06:34:58.739Z,7.82
2022-11-17T06:40:01.131Z,6.40
2022-11-17T06:45:03.605Z,7.45
2022-11-17T06:50:08.350Z,7.40
2022-11-17T06:55:10.993Z,7.70
2022-11-17T07:00:14.334Z,7.57
2022-11-17T07:05:18.293Z,7.63
2022-11-17T07:10:20.823Z,7.95
2022-11-17T07:15:23.408Z,7.60
2022-11-17T07:20:27.219Z,8.03
2022-11-17T07:25:29.636Z,6.60
2022-11-17T07:30:32.161Z,5.63
2022-11-17T07:35:36.430Z,3.80
2022-11-17T07:40:38.862Z,3.80
2022-11-17T07:45:41.347Z,3.40
2022-11-17T07:50:45.087Z,4.13
2022-11-17T07:55:47.557Z,5.18
2022-11-17T08:00:50.059Z,5.20
2022-11-17T08:05:53.901Z,5.57
2022-11-17T08:10:56.344Z,5.18
2022-11-17T08:15:59.007Z,5.13
2022-11-17T08:21:03.797Z,5.33
2022-11-17T08:26:07.279Z,6.32
2022-11-17T08:36:13.230Z,5.75
2022-11-17T08:41:15.704Z,7.40
2022-11-17T08:46:18.137Z,7.07
2022-11-17T08:51:21.902Z,5.63
2022-11-17T08:56:24.293Z,5.30
2022-11-17T09:01:27.204Z,5.15
2022-11-17T09:06:31.189Z,3.85
2022-11-17T09:11:33.609Z,3.35
2022-11-17T09:16:36.064Z,3.13
2022-11-17T09:21:39.908Z,2.38
2022-11-17T09:26:43.020Z,2.30
2022-11-17T09:31:45.511Z,2.22
2022-11-17T09:36:49.524Z,1.40
2022-11-17T09:41:52.845Z,1.70
2022-11-17T09:47:03.436Z,1.90
2022-11-17T09:52:13.234Z,2.03
2022-11-17T09:57:20.943Z,1.95
2022-11-17T10:02:23.599Z,2.95
2022-11-17T10:07:27.622Z,2.80
2022-11-17T10:12:34.367Z,2.03
2022-11-17T10:17:39.364Z,2.15
2022-11-17T10:22:43.503Z,1.95
2022-11-17T10:27:50.466Z,1.85
2022-11-17T10:32:53.530Z,1.40
2022-11-17T10:37:58.633Z,1.58
2022-11-17T10:43:03.121Z,1.23
2022-11-17T10:48:10.642Z,1.50
2022-11-17T10:53:22.163Z,1.38
2022-11-17T10:58:26.332Z,1.70
2022-11-17T11:03:29.921Z,1.55
2022-11-17T11:08:37.591Z,1.40
2022-11-17T11:13:43.692Z,1.88
2022-11-17T11:18:46.291Z,1.20
2022-11-17T11:23:53.559Z,1.77
2022-11-17T11:29:00.999Z,1.80
2022-11-17T11:34:07.677Z,1.83
2022-11-17T11:39:20.501Z,2.60
2022-11-17T11:44:39.021Z,2.13
2022-11-17T11:49:42.687Z,1.90
2022-11-17T11:54:51.030Z,2.13
2022-11-17T12:00:02.442Z,2.17
2022-11-17T12:05:14.192Z,1.38
2022-11-17T12:10:21.503Z,1.80
2022-11-17T12:15:36.987Z,1.40
2022-11-17T12:20:49.838Z,1.38
2022-11-17T12:25:55.285Z,2.00
2022-11-17T12:30:58.768Z,1.40
2022-11-17T12:36:30.132Z,1.13
2022-11-17T12:41:54.760Z,1.35
2022-11-17T12:47:02.614Z,1.33
2022-11-17T12:52:07.624Z,1.23
2022-11-17T12:57:12.240Z,1.05
2022-11-17T13:02:21.855Z,2.05
2022-11-17T13:07:25.489Z,1.15
2022-11-17T13:12:28.606Z,1.25
2022-11-17T13:17:34.075Z,1.20
2022-11-17T13:22:41.817Z,1.13
2022-11-17T13:27:49.408Z,1.15
2022-11-17T13:32:59.318Z,1.70
2022-11-17T13:38:02.849Z,1.10
2022-11-17T13:43:05.818Z,1.10
2022-11-17T13:48:30.693Z,1.17
2022-11-17T13:53:34.190Z,1.10
2022-11-17T13:58:39.233Z,1.38
2022-11-17T14:03:44.394Z,1.33
2022-11-17T14:09:01.686Z,1.30
2022-11-17T14:14:13.020Z,1.50
2022-11-17T14:19:27.478Z,1.30
2022-11-17T14:24:30.087Z,1.00
2022-11-17T14:29:32.486Z,1.20
2022-11-17T14:34:36.174Z,1.33
2022-11-17T14:39:38.600Z,1.70
2022-11-17T14:44:40.985Z,1.52
2022-11-17T14:49:44.699Z,1.48
2022-11-17T14:54:47.166Z,1.92
2022-11-17T14:59:49.576Z,1.95
2022-11-17T15:04:53.821Z,2.25
2022-11-17T15:09:57.226Z,2.63
2022-11-17T15:14:59.627Z,3.20
2022-11-17T15:20:03.648Z,3.15
2022-11-17T15:25:06.565Z,2.22
2022-11-17T15:30:09.416Z,3.40
2022-11-17T15:35:13.124Z,2.47
2022-11-17T15:40:19.383Z,2.20
2022-11-17T15:45:23.234Z,2.13
2022-11-17T15:50:26.980Z,1.33
2022-11-17T15:55:29.328Z,1.65
2022-11-17T16:00:33.820Z,1.40
2022-11-17T16:05:37.661Z,1.40
2022-11-17T16:10:40.045Z,1.75
2022-11-17T16:15:42.426Z,1.80
2022-11-17T16:20:46.187Z,2.42
2022-11-17T16:25:49.283Z,4.60
2022-11-17T16:30:51.677Z,3.92
2022-11-17T16:35:55.405Z,7.40
2022-11-17T16:41:00.407Z,7.97
2022-11-17T16:46:14.988Z,3.17
2022-11-17T16:51:18.997Z,5.20
2022-11-17T16:56:21.506Z,2.50
2022-11-17T17:01:26.046Z,2.37
2022-11-17T17:06:29.839Z,1.90
2022-11-17T17:11:32.820Z,2.38
2022-11-17T17:16:36.042Z,1.92
2022-11-17T17:21:40.700Z,2.50
2022-11-17T17:26:43.127Z,2.40
2022-11-17T17:31:45.581Z,3.10
2022-11-17T17:36:49.272Z,9.70
2022-11-17T17:41:51.778Z,2.95
2022-11-17T17:46:54.329Z,8.63
2022-11-17T17:51:58.057Z,3.67
2022-11-17T17:57:00.466Z,4.05
2022-11-17T18:02:02.857Z,3.83
2022-11-17T18:07:06.655Z,3.08
2022-11-17T18:12:09.439Z,2.72
2022-11-17T18:17:11.959Z,2.57
2022-11-17T18:22:15.732Z,2.57
2022-11-17T18:27:18.138Z,2.47
2022-11-17T18:32:21.560Z,2.63
2022-11-17T18:42:27.673Z,2.72
2022-11-17T18:47:30.134Z,2.50
2022-11-17T18:52:32.767Z,2.83
2022-11-17T18:57:39.545Z,2.83
2022-11-17T19:02:44.590Z,2.33
2022-11-17T19:07:47.100Z,2.70
2022-11-17T19:12:51.233Z,2.30
2022-11-17T19:17:53.735Z,2.08
2022-11-17T19:22:56.193Z,1.85
2022-11-17T19:28:00.018Z,1.98
2022-11-17T19:33:02.733Z,2.50
2022-11-17T19:38:05.289Z,3.97
2022-11-17T19:43:09.415Z,2.63
2022-11-17T19:48:12.003Z,2.88
2022-11-17T19:53:14.454Z,2.70
2022-11-17T19:58:18.397Z,2.83
2022-11-17T20:03:21.373Z,2.45
2022-11-17T20:08:23.867Z,2.53
2022-11-17T20:13:27.688Z,2.90
2022-11-17T20:18:31.775Z,4.22
2022-11-17T20:23:34.827Z,3.20
2022-11-17T20:28:38.746Z,2.60
2022-11-17T20:33:41.919Z,3.22
2022-11-17T20:38:44.495Z,4.25
2022-11-17T20:43:49.307Z,3.00
2022-11-17T20:48:51.815Z,3.95
2022-11-17T20:53:54.369Z,3.30
2022-11-17T20:58:58.228Z,3.75
2022-11-17T21:04:00.652Z,3.75
2022-11-17T21:09:03.154Z,4.93
2022-11-17T21:14:08.226Z,4.00
2022-11-17T21:19:10.734Z,6.30
2022-11-17T21:24:13.353Z,5.07
2022-11-17T21:29:17.146Z,5.60
2022-11-17T21:34:19.656Z,4.95
2022-11-17T21:39:22.354Z,5.05
2022-11-17T21:44:26.182Z,5.00
2022-11-17T21:49:28.580Z,5.13
2022-11-17T21:54:30.986Z,6.30
2022-11-17T21:59:35.822Z,6.70
2022-11-17T22:04:38.322Z,8.15
2022-11-17T22:09:40.750Z,6.07
2022-11-17T22:14:44.546Z,6.20
2022-11-17T22:19:47.061Z,5.95
2022-11-17T22:24:50.017Z,6.43
2022-11-17T22:29:53.943Z,6.22
2022-11-17T22:34:56.316Z,6.55
2022-11-17T22:39:58.735Z,6.72
2022-11-17T22:45:02.588Z,6.32
2022-11-17T22:50:05.319Z,6.50
2022-11-17T22:55:08.056Z,6.97
2022-11-17T23:00:13.124Z,6.10
2022-11-17T23:05:15.670Z,5.68
2022-11-17T23:10:18.505Z,5.47
2022-11-17T23:15:22.593Z,5.85
2022-11-17T23:20:25.088Z,5.05
2022-11-17T23:25:28.573Z,6.00
2022-11-17T23:35:35.468Z,4.72
2022-11-17T23:40:38.053Z,5.60
2022-11-17T23:45:40.438Z,5.57
2022-11-17T23:50:44.286Z,5.32
2022-11-17T23:55:54.571Z,6.50
